TimePST,TemperatureF,Dew PointF,Humidity,Sea Level PressureIn,VisibilityMPH,Wind Direction,Wind SpeedMPH,Gust SpeedMPH,PrecipitationIn,Events,Conditions,WindDirDegrees,DateUTC
12:58 AM,37.8,37.2,98,30.17,10.0,North,5.8,-,N/A,,Overcast,360,2013-11-10 08:58:00
1:58 AM,37.6,37.0,98,30.16,10.0,North,4.6,-,N/A,,Overcast,10,2013-11-10 09:58:00
2:58 AM,37.6,37.0,98,30.15,10.0,NNE,4.6,-,N/A,,Overcast,20,2013-11-10 10:58:00
3:28 AM,37.4,37.4,100,30.11,10.0,North,4.6,-,N/A,,Overcast,350,2013-11-10 11:28:00
3:37 AM,37.4,37.4,100,30.10,9.0,North,5.8,-,N/A,,Overcast,10,2013-11-10 11:37:00
3:58 AM,37.4,37.0,99,30.15,9.0,NNE,4.6,-,N/A,,Overcast,30,2013-11-10 11:58:00
3:59 AM,37.4,37.4,100,30.10,10.0,NNE,4.6,-,N/A,,Overcast,30,2013-11-10 11:59:00
4:04 AM,37.4,37.4,100,30.11,9.0,NNE,5.8,-,N/A,,Overcast,30,2013-11-10 12:04:00
4:20 AM,37.4,37.4,100,30.10,10.0,NNE,4.6,-,N/A,,Overcast,30,2013-11-10 12:20:00
4:29 AM,37.4,37.4,100,30.10,9.0,NE,5.8,-,N/A,,Overcast,40,2013-11-10 12:29:00
4:58 AM,37.4,37.4,100,30.16,6.0,NNE,4.6,-,N/A,,Mostly Cloudy,30,2013-11-10 12:58:00
5:10 AM,37.4,37.4,100,30.11,10.0,North,4.6,-,N/A,,Mostly Cloudy,360,2013-11-10 13:10:00
5:58 AM,37.6,37.4,99,30.16,10.0,NNE,5.8,-,N/A,,Overcast,20,2013-11-10 13:58:00
5:59 AM,37.4,37.4,100,30.10,10.0,NNE,5.8,-,N/A,,Overcast,20,2013-11-10 13:59:00
6:20 AM,37.4,37.4,100,30.10,10.0,NE,5.8,-,N/A,,Overcast,40,2013-11-10 14:20:00
6:30 AM,37.4,37.4,100,30.10,6.0,NE,5.8,-,N/A,,Overcast,40,2013-11-10 14:30:00
6:40 AM,37.4,37.4,100,30.10,5.0,NNE,5.8,-,N/A,,Overcast,30,2013-11-10 14:40:00
6:43 AM,37.4,37.4,100,30.11,4.0,NNE,5.8,-,N/A,,Overcast,30,2013-11-10 14:43:00
6:53 AM,37.4,37.4,100,30.11,5.0,NNE,5.8,-,N/A,,Overcast,20,2013-11-10 14:53:00
6:58 AM,37.6,37.4,99,30.17,6.0,North,5.8,-,N/A,,Overcast,10,2013-11-10 14:58:00
7:44 AM,37.4,37.4,100,30.11,5.0,NE,5.8,-,N/A,,Overcast,50,2013-11-10 15:44:00
7:53 AM,37.4,37.4,100,30.12,7.0,NE,5.8,-,N/A,,Overcast,50,2013-11-10 15:53:00
7:58 AM,37.8,37.6,99,30.18,8.0,NNE,5.8,-,0.00,,Overcast,30,2013-11-10 15:58:00
8:33 AM,37.4,37.4,100,30.13,10.0,Variable,1.2,-,N/A,,Overcast,0,2013-11-10 16:33:00
8:53 AM,39.2,37.4,93,30.13,10.0,North,2.3,-,N/A,,Overcast,350,2013-11-10 16:53:00
8:58 AM,38.5,37.9,98,30.19,10.0,North,2.3,-,N/A,,Overcast,350,2013-11-10 16:58:00
9:25 AM,39.2,37.4,93,30.13,10.0,Variable,4.6,-,N/A,,Overcast,0,2013-11-10 17:25:00
9:27 AM,39.2,37.4,93,30.13,10.0,Variable,5.8,-,N/A,,Overcast,0,2013-11-10 17:27:00
9:37 AM,39.2,37.4,93,30.13,10.0,NNE,6.9,-,N/A,,Overcast,20,2013-11-10 17:37:00
9:58 AM,39.6,38.5,96,30.19,10.0,North,4.6,-,0.00,,Overcast,350,2013-11-10 17:58:00
10:13 AM,39.2,39.2,100,30.15,10.0,Variable,4.6,-,N/A,,Overcast,0,2013-11-10 18:13:00
10:58 AM,40.3,38.3,93,30.20,10.0,NNE,6.9,-,N/A,,Overcast,20,2013-11-10 18:58:00
11:23 AM,41.0,39.2,93,30.15,10.0,NNE,5.8,-,N/A,,Overcast,20,2013-11-10 19:23:00
11:43 AM,41.0,39.2,93,30.15,10.0,NE,5.8,-,N/A,,Overcast,40,2013-11-10 19:43:00
11:53 AM,41.0,39.2,93,30.15,10.0,Variable,5.8,-,N/A,,Overcast,0,2013-11-10 19:53:00
11:58 AM,41.0,39.2,93,30.19,10.0,Variable,4.6,-,N/A,,Overcast,0,2013-11-10 19:58:00
12:13 PM,41.0,39.2,93,30.14,10.0,North,4.6,-,N/A,,Overcast,360,2013-11-10 20:13:00
12:23 PM,41.0,39.2,93,30.14,10.0,NNE,5.8,-,N/A,,Overcast,30,2013-11-10 20:23:00
12:33 PM,41.0,39.2,93,30.14,10.0,NNE,6.9,-,N/A,,Overcast,20,2013-11-10 20:33:00
12:58 PM,41.7,38.7,89,30.19,10.0,NE,6.9,-,N/A,,Overcast,40,2013-11-10 20:58:00
1:58 PM,42.6,39.0,87,30.20,10.0,North,8.1,-,N/A,,Overcast,360,2013-11-10 21:58:00
2:58 PM,41.9,38.8,89,30.20,10.0,North,6.9,-,N/A,,Overcast,10,2013-11-10 22:58:00
3:13 PM,41.0,39.2,93,30.15,10.0,North,8.1,-,N/A,,Overcast,360,2013-11-10 23:13:00
3:38 PM,41.0,39.2,93,30.16,10.0,North,5.8,-,N/A,,Overcast,360,2013-11-10 23:38:00
3:58 PM,41.2,38.8,91,30.22,10.0,North,6.9,-,N/A,,Overcast,10,2013-11-10 23:58:00
4:18 PM,41.0,39.2,93,30.16,10.0,North,5.8,-,N/A,,Overcast,10,2013-11-11 00:18:00
4:58 PM,39.9,38.5,95,30.22,10.0,North,5.8,-,N/A,,Mostly Cloudy,360,2013-11-11 00:58:00
5:52 PM,39.2,37.4,93,30.17,10.0,North,5.8,-,N/A,,Overcast,360,2013-11-11 01:52:00
5:58 PM,39.0,37.4,94,30.23,10.0,North,5.8,-,N/A,,Overcast,350,2013-11-11 01:58:00
6:58 PM,38.1,36.7,95,30.24,10.0,North,5.8,-,N/A,,Overcast,350,2013-11-11 02:58:00
7:58 PM,37.8,36.1,94,30.25,10.0,NNW,8.1,-,N/A,,Overcast,340,2013-11-11 03:58:00
8:58 PM,38.3,36.1,92,30.26,10.0,North,6.9,-,N/A,,Overcast,10,2013-11-11 04:58:00
9:58 PM,38.3,36.5,93,30.27,10.0,NNW,5.8,-,N/A,,Overcast,340,2013-11-11 05:58:00
10:58 PM,38.5,36.3,92,30.27,10.0,North,4.6,-,N/A,,Overcast,360,2013-11-11 06:58:00
11:58 PM,38.5,36.1,91,30.28,10.0,North,6.9,-,N/A,,Overcast,10,2013-11-11 07:58:00